sensor_id;sensor_type;location;lat;lon;timestamp;pressure;altitude;pressure_sealevel;temperature;humidity
32197;BME280;18697;42.770;23.400;2023-03-19T00:00:12;96209.44;;;4.74;57.56
32197;BME280;18697;42.770;23.400;2023-03-19T00:02:38;96221.63;;;4.73;57.85
32197;BME280;18697;42.770;23.400;2023-03-19T00:05:04;96215.66;;;4.78;57.82
32197;BME280;18697;42.770;23.400;2023-03-19T00:07:30;96211.69;;;4.83;57.92
32197;BME280;18697;42.770;23.400;2023-03-19T00:09:55;96202.94;;;4.91;57.53
32197;BME280;18697;42.770;23.400;2023-03-19T00:12:20;96208.84;;;4.90;57.64
32197;BME280;18697;42.770;23.400;2023-03-19T00:14:46;96211.22;;;4.88;57.74
32197;BME280;18697;42.770;23.400;2023-03-19T00:17:11;96202.19;;;4.87;57.74
32197;BME280;18697;42.770;23.400;2023-03-19T00:19:37;96206.38;;;4.99;57.72
32197;BME280;18697;42.770;23.400;2023-03-19T00:22:03;96208.75;;;4.97;57.38
32197;BME280;18697;42.770;23.400;2023-03-19T00:24:29;96193.19;;;4.83;57.82
32197;BME280;18697;42.770;23.400;2023-03-19T00:26:54;96191.53;;;4.89;57.73
32197;BME280;18697;42.770;23.400;2023-03-19T00:29:20;96187.88;;;5.00;57.37
32197;BME280;18697;42.770;23.400;2023-03-19T00:31:47;96188.09;;;5.12;56.81
32197;BME280;18697;42.770;23.400;2023-03-19T00:34:12;96188.97;;;5.06;57.11
32197;BME280;18697;42.770;23.400;2023-03-19T00:36:38;96192.59;;;4.99;57.07
32197;BME280;18697;42.770;23.400;2023-03-19T00:39:04;96186.00;;;4.93;57.35
32197;BME280;18697;42.770;23.400;2023-03-19T00:41:30;96183.66;;;4.91;57.35
32197;BME280;18697;42.770;23.400;2023-03-19T00:43:56;96176.13;;;4.95;57.32
32197;BME280;18697;42.770;23.400;2023-03-19T00:46:22;96180.06;;;4.94;57.55
32197;BME280;18697;42.770;23.400;2023-03-19T00:48:48;96166.50;;;4.80;57.38
32197;BME280;18697;42.770;23.400;2023-03-19T00:51:15;96170.16;;;4.70;57.87
32197;BME280;18697;42.770;23.400;2023-03-19T00:53:42;96177.34;;;4.60;58.13
32197;BME280;18697;42.770;23.400;2023-03-19T00:56:08;96174.84;;;4.43;58.41
32197;BME280;18697;42.770;23.400;2023-03-19T00:58:35;96173.00;;;4.33;58.77
32197;BME280;18697;42.770;23.400;2023-03-19T01:01:03;96177.63;;;4.39;58.74
32197;BME280;18697;42.770;23.400;2023-03-19T01:03:29;96171.81;;;4.34;58.99
32197;BME280;18697;42.770;23.400;2023-03-19T01:05:54;96178.44;;;4.36;59.04
32197;BME280;18697;42.770;23.400;2023-03-19T01:08:19;96177.00;;;4.24;58.76
32197;BME280;18697;42.770;23.400;2023-03-19T01:10:45;96176.34;;;4.13;58.40
32197;BME280;18697;42.770;23.400;2023-03-19T01:13:11;96176.38;;;4.10;58.74
32197;BME280;18697;42.770;23.400;2023-03-19T01:15:37;96168.09;;;4.13;58.40
32197;BME280;18697;42.770;23.400;2023-03-19T01:18:04;96162.22;;;4.11;58.52
32197;BME280;18697;42.770;23.400;2023-03-19T01:20:29;96167.00;;;4.04;58.47
32197;BME280;18697;42.770;23.400;2023-03-19T01:22:55;96164.03;;;3.87;58.96
32197;BME280;18697;42.770;23.400;2023-03-19T01:25:21;96169.56;;;3.84;59.17
32197;BME280;18697;42.770;23.400;2023-03-19T01:27:46;96173.19;;;3.74;59.52
32197;BME280;18697;42.770;23.400;2023-03-19T01:30:12;96160.69;;;3.69;59.62
32197;BME280;18697;42.770;23.400;2023-03-19T01:32:37;96165.03;;;3.67;59.74
32197;BME280;18697;42.770;23.400;2023-03-19T01:35:03;96162.78;;;3.54;59.87
32197;BME280;18697;42.770;23.400;2023-03-19T01:37:29;96159.22;;;3.57;60.25
32197;BME280;18697;42.770;23.400;2023-03-19T01:39:54;96150.97;;;3.57;60.22
32197;BME280;18697;42.770;23.400;2023-03-19T01:42:19;96155.28;;;3.58;60.59
32197;BME280;18697;42.770;23.400;2023-03-19T01:44:45;96158.50;;;3.50;60.63
32197;BME280;18697;42.770;23.400;2023-03-19T01:49:52;96152.56;;;3.55;61.04
32197;BME280;18697;42.770;23.400;2023-03-19T01:52:19;96154.94;;;3.53;61.24
32197;BME280;18697;42.770;23.400;2023-03-19T01:54:45;96157.34;;;3.47;61.50
32197;BME280;18697;42.770;23.400;2023-03-19T01:57:12;96160.28;;;3.71;60.76
32197;BME280;18697;42.770;23.400;2023-03-19T01:59:41;96155.47;;;3.78;60.45
32197;BME280;18697;42.770;23.400;2023-03-19T02:02:27;96151.75;;;3.58;60.59
32197;BME280;18697;42.770;23.400;2023-03-19T02:04:57;96160.66;;;3.21;62.17
32197;BME280;18697;42.770;23.400;2023-03-19T02:07:25;96150.06;;;3.23;61.91
32197;BME280;18697;42.770;23.400;2023-03-19T02:09:51;96161.44;;;3.25;62.32
32197;BME280;18697;42.770;23.400;2023-03-19T02:12:17;96162.97;;;3.29;62.16
32197;BME280;18697;42.770;23.400;2023-03-19T02:14:43;96168.09;;;3.24;62.97
32197;BME280;18697;42.770;23.400;2023-03-19T02:17:08;96175.41;;;3.45;62.56
32197;BME280;18697;42.770;23.400;2023-03-19T02:22:02;96178.06;;;3.55;62.16
32197;BME280;18697;42.770;23.400;2023-03-19T02:24:34;96179.72;;;3.46;61.56
32197;BME280;18697;42.770;23.400;2023-03-19T02:27:01;96179.75;;;3.42;60.64
32197;BME280;18697;42.770;23.400;2023-03-19T02:29:26;96180.13;;;3.41;60.46
32197;BME280;18697;42.770;23.400;2023-03-19T02:31:52;96172.63;;;3.48;60.16
32197;BME280;18697;42.770;23.400;2023-03-19T02:36:59;96171.59;;;3.28;60.57
32197;BME280;18697;42.770;23.400;2023-03-19T02:39:40;96168.91;;;3.21;60.95
32197;BME280;18697;42.770;23.400;2023-03-19T02:42:09;96175.56;;;3.23;61.72
32197;BME280;18697;42.770;23.400;2023-03-19T02:44:35;96179.41;;;3.33;61.38
32197;BME280;18697;42.770;23.400;2023-03-19T02:47:02;96176.84;;;3.05;61.68
32197;BME280;18697;42.770;23.400;2023-03-19T02:49:28;96174.28;;;2.80;62.57
32197;BME280;18697;42.770;23.400;2023-03-19T02:51:53;96177.09;;;2.62;63.10
32197;BME280;18697;42.770;23.400;2023-03-19T02:54:18;96177.16;;;2.44;63.67
32197;BME280;18697;42.770;23.400;2023-03-19T02:56:44;96178.78;;;2.31;64.01
32197;BME280;18697;42.770;23.400;2023-03-19T02:59:10;96176.91;;;2.17;64.55
32197;BME280;18697;42.770;23.400;2023-03-19T03:01:35;96188.66;;;2.07;65.03
32197;BME280;18697;42.770;23.400;2023-03-19T03:04:01;96181.25;;;1.97;65.71
32197;BME280;18697;42.770;23.400;2023-03-19T03:06:27;96178.50;;;1.90;66.01
32197;BME280;18697;42.770;23.400;2023-03-19T03:08:52;96184.78;;;1.83;66.72
32197;BME280;18697;42.770;23.400;2023-03-19T03:11:18;96181.25;;;1.86;66.91
32197;BME280;18697;42.770;23.400;2023-03-19T03:13:44;96187.06;;;2.17;66.75
32197;BME280;18697;42.770;23.400;2023-03-19T03:16:10;96191.69;;;2.34;65.95
32197;BME280;18697;42.770;23.400;2023-03-19T03:18:35;96191.66;;;2.48;65.46
32197;BME280;18697;42.770;23.400;2023-03-19T03:21:01;96192.75;;;2.69;64.68
32197;BME280;18697;42.770;23.400;2023-03-19T03:23:27;96198.22;;;2.72;63.05
32197;BME280;18697;42.770;23.400;2023-03-19T03:25:53;96200.19;;;2.68;61.78
32197;BME280;18697;42.770;23.400;2023-03-19T03:28:18;96199.38;;;2.78;61.86
32197;BME280;18697;42.770;23.400;2023-03-19T03:30:44;96194.63;;;2.86;61.48
32197;BME280;18697;42.770;23.400;2023-03-19T03:33:10;96209.47;;;2.95;61.48
32197;BME280;18697;42.770;23.400;2023-03-19T03:35:36;96200.47;;;2.95;61.25
32197;BME280;18697;42.770;23.400;2023-03-19T03:38:01;96203.53;;;3.01;61.68
32197;BME280;18697;42.770;23.400;2023-03-19T03:40:28;96207.91;;;2.94;61.96
32197;BME280;18697;42.770;23.400;2023-03-19T03:42:53;96207.91;;;2.94;62.10
32197;BME280;18697;42.770;23.400;2023-03-19T03:45:19;96210.19;;;3.00;61.73
32197;BME280;18697;42.770;23.400;2023-03-19T03:47:44;96200.06;;;2.96;61.95
32197;BME280;18697;42.770;23.400;2023-03-19T03:50:10;96200.84;;;2.93;61.90
32197;BME280;18697;42.770;23.400;2023-03-19T03:52:37;96209.81;;;2.97;61.74
32197;BME280;18697;42.770;23.400;2023-03-19T03:55:03;96196.56;;;2.92;61.29
32197;BME280;18697;42.770;23.400;2023-03-19T03:57:29;96207.94;;;2.87;61.70
32197;BME280;18697;42.770;23.400;2023-03-19T03:59:54;96210.66;;;2.94;61.68
32197;BME280;18697;42.770;23.400;2023-03-19T04:02:20;96209.13;;;2.86;61.88
32197;BME280;18697;42.770;23.400;2023-03-19T04:04:46;96213.03;;;2.89;62.34
32197;BME280;18697;42.770;23.400;2023-03-19T04:07:11;96200.09;;;2.89;62.18
32197;BME280;18697;42.770;23.400;2023-03-19T04:09:37;96205.63;;;2.82;62.08
32197;BME280;18697;42.770;23.400;2023-03-19T04:12:02;96212.66;;;2.87;61.75
32197;BME280;18697;42.770;23.400;2023-03-19T04:14:28;96202.81;;;2.96;61.51
32197;BME280;18697;42.770;23.400;2023-03-19T04:16:53;96195.34;;;2.97;61.73
32197;BME280;18697;42.770;23.400;2023-03-19T04:19:19;96192.50;;;3.08;61.24
32197;BME280;18697;42.770;23.400;2023-03-19T04:21:44;96199.28;;;2.92;60.97
32197;BME280;18697;42.770;23.400;2023-03-19T04:24:11;96189.13;;;2.89;61.63
32197;BME280;18697;42.770;23.400;2023-03-19T04:26:37;96201.72;;;2.76;61.74
32197;BME280;18697;42.770;23.400;2023-03-19T04:29:03;96207.19;;;2.80;61.99
32197;BME280;18697;42.770;23.400;2023-03-19T04:31:29;96207.16;;;2.87;61.47
32197;BME280;18697;42.770;23.400;2023-03-19T04:33:54;96201.03;;;2.54;62.68
32197;BME280;18697;42.770;23.400;2023-03-19T04:36:20;96207.44;;;2.12;64.20
32197;BME280;18697;42.770;23.400;2023-03-19T04:38:45;96212.19;;;1.87;65.46
32197;BME280;18697;42.770;23.400;2023-03-19T04:41:12;96217.25;;;1.99;66.14
32197;BME280;18697;42.770;23.400;2023-03-19T04:43:38;96218.81;;;2.04;65.81
32197;BME280;18697;42.770;23.400;2023-03-19T04:46:04;96212.16;;;2.08;65.94
32197;BME280;18697;42.770;23.400;2023-03-19T04:48:31;96214.88;;;2.19;65.63
32197;BME280;18697;42.770;23.400;2023-03-19T04:50:56;96220.28;;;2.33;65.70
32197;BME280;18697;42.770;23.400;2023-03-19T04:53:22;96218.81;;;1.93;66.53
32197;BME280;18697;42.770;23.400;2023-03-19T04:55:49;96221.94;;;1.95;67.27
32197;BME280;18697;42.770;23.400;2023-03-19T04:58:14;96223.91;;;1.94;67.45
32197;BME280;18697;42.770;23.400;2023-03-19T05:00:40;96229.78;;;1.93;67.90
32197;BME280;18697;42.770;23.400;2023-03-19T05:03:05;96225.06;;;2.11;67.49
32197;BME280;18697;42.770;23.400;2023-03-19T05:05:31;96221.94;;;2.13;67.31
32197;BME280;18697;42.770;23.400;2023-03-19T05:07:56;96224.25;;;2.21;67.03
32197;BME280;18697;42.770;23.400;2023-03-19T05:10:22;96224.25;;;2.21;66.58
32197;BME280;18697;42.770;23.400;2023-03-19T05:12:48;96233.63;;;2.24;66.32
32197;BME280;18697;42.770;23.400;2023-03-19T05:15:14;96222.31;;;2.18;65.67
32197;BME280;18697;42.770;23.400;2023-03-19T05:17:40;96229.69;;;2.28;65.68
32197;BME280;18697;42.770;23.400;2023-03-19T05:20:05;96234.38;;;2.35;65.19
32197;BME280;18697;42.770;23.400;2023-03-19T05:22:31;96234.38;;;2.42;65.23
32197;BME280;18697;42.770;23.400;2023-03-19T05:24:56;96235.16;;;2.32;65.53
32197;BME280;18697;42.770;23.400;2023-03-19T05:27:22;96225.84;;;2.08;66.65
32197;BME280;18697;42.770;23.400;2023-03-19T05:29:47;96230.16;;;2.06;67.28
32197;BME280;18697;42.770;23.400;2023-03-19T05:32:13;96234.09;;;1.83;67.80
32197;BME280;18697;42.770;23.400;2023-03-19T05:34:38;96236.44;;;1.78;68.27
32197;BME280;18697;42.770;23.400;2023-03-19T05:37:03;96236.06;;;1.69;68.71
32197;BME280;18697;42.770;23.400;2023-03-19T05:39:29;96240.38;;;1.48;69.37
32197;BME280;18697;42.770;23.400;2023-03-19T05:41:55;96239.97;;;1.60;70.19
32197;BME280;18697;42.770;23.400;2023-03-19T05:44:20;96240.75;;;1.82;69.82
32197;BME280;18697;42.770;23.400;2023-03-19T05:46:46;96239.97;;;1.89;69.39
32197;BME280;18697;42.770;23.400;2023-03-19T05:49:12;96235.66;;;2.02;69.24
32197;BME280;18697;42.770;23.400;2023-03-19T05:51:37;96238.00;;;1.96;68.98
32197;BME280;18697;42.770;23.400;2023-03-19T05:54:03;96237.97;;;2.11;69.33
32197;BME280;18697;42.770;23.400;2023-03-19T05:56:29;96236.72;;;2.37;68.52
32197;BME280;18697;42.770;23.400;2023-03-19T05:58:54;96234.66;;;2.69;68.44
32197;BME280;18697;42.770;23.400;2023-03-19T06:01:20;96237.56;;;3.17;66.42
32197;BME280;18697;42.770;23.400;2023-03-19T06:03:45;96231.81;;;3.56;65.56
32197;BME280;18697;42.770;23.400;2023-03-19T06:06:11;96228.75;;;3.92;64.49
32197;BME280;18697;42.770;23.400;2023-03-19T06:08:36;96223.47;;;4.49;63.52
32197;BME280;18697;42.770;23.400;2023-03-19T06:11:02;96233.00;;;4.75;61.59
32197;BME280;18697;42.770;23.400;2023-03-19T06:13:28;96234.94;;;5.09;60.24
32197;BME280;18697;42.770;23.400;2023-03-19T06:15:53;96231.59;;;5.51;59.00
32197;BME280;18697;42.770;23.400;2023-03-19T06:18:18;96221.13;;;5.66;57.99
32197;BME280;18697;42.770;23.400;2023-03-19T06:20:45;96227.94;;;6.08;56.90
32197;BME280;18697;42.770;23.400;2023-03-19T06:23:10;96227.41;;;6.60;56.11
32197;BME280;18697;42.770;23.400;2023-03-19T06:25:36;96225.19;;;6.71;55.27
32197;BME280;18697;42.770;23.400;2023-03-19T06:28:01;96227.66;;;6.85;55.91
32197;BME280;18697;42.770;23.400;2023-03-19T06:30:27;96233.47;;;7.11;55.21
32197;BME280;18697;42.770;23.400;2023-03-19T06:32:53;96235.22;;;7.21;54.24
32197;BME280;18697;42.770;23.400;2023-03-19T06:35:18;96227.00;;;7.53;54.10
32197;BME280;18697;42.770;23.400;2023-03-19T06:37:43;96233.50;;;7.63;52.84
32197;BME280;18697;42.770;23.400;2023-03-19T06:40:09;96228.59;;;8.03;51.71
32197;BME280;18697;42.770;23.400;2023-03-19T06:42:35;96232.13;;;8.36;51.37
32197;BME280;18697;42.770;23.400;2023-03-19T06:45:00;96234.94;;;8.49;50.30
32197;BME280;18697;42.770;23.400;2023-03-19T06:47:26;96242.09;;;8.92;53.24
32197;BME280;18697;42.770;23.400;2023-03-19T06:49:52;96240.13;;;9.05;52.08
32197;BME280;18697;42.770;23.400;2023-03-19T06:52:17;96242.47;;;9.06;51.63
32197;BME280;18697;42.770;23.400;2023-03-19T06:54:42;96257.91;;;9.20;51.81
32197;BME280;18697;42.770;23.400;2023-03-19T06:57:08;96252.63;;;9.38;51.00
32197;BME280;18697;42.770;23.400;2023-03-19T06:59:33;96256.41;;;9.44;51.10
32197;BME280;18697;42.770;23.400;2023-03-19T07:01:59;96254.28;;;9.36;51.29
32197;BME280;18697;42.770;23.400;2023-03-19T07:04:24;96253.97;;;9.34;51.26
32197;BME280;18697;42.770;23.400;2023-03-19T07:06:50;96257.28;;;9.41;50.71
32197;BME280;18697;42.770;23.400;2023-03-19T07:09:15;96249.72;;;9.29;50.96
32197;BME280;18697;42.770;23.400;2023-03-19T07:11:40;96247.22;;;9.60;49.35
32197;BME280;18697;42.770;23.400;2023-03-19T07:14:06;96248.88;;;9.70;49.20
32197;BME280;18697;42.770;23.400;2023-03-19T07:16:31;96251.44;;;9.65;48.25
32197;BME280;18697;42.770;23.400;2023-03-19T07:18:56;96252.19;;;9.40;49.74
32197;BME280;18697;42.770;23.400;2023-03-19T07:21:22;96263.09;;;9.60;49.16
32197;BME280;18697;42.770;23.400;2023-03-19T07:23:47;96255.19;;;9.83;48.78
32197;BME280;18697;42.770;23.400;2023-03-19T07:26:15;96256.97;;;10.03;47.25
32197;BME280;18697;42.770;23.400;2023-03-19T07:28:40;96254.88;;;9.94;46.14
32197;BME280;18697;42.770;23.400;2023-03-19T07:31:06;96243.53;;;10.27;47.10
32197;BME280;18697;42.770;23.400;2023-03-19T07:33:31;96241.75;;;10.33;46.75
32197;BME280;18697;42.770;23.400;2023-03-19T07:35:57;96245.34;;;10.55;45.52
32197;BME280;18697;42.770;23.400;2023-03-19T07:38:22;96239.19;;;10.95;46.14
32197;BME280;18697;42.770;23.400;2023-03-19T07:40:49;96235.50;;;11.19;46.39
32197;BME280;18697;42.770;23.400;2023-03-19T07:43:14;96241.19;;;11.16;45.50
32197;BME280;18697;42.770;23.400;2023-03-19T07:45:40;96242.22;;;11.31;46.11
32197;BME280;18697;42.770;23.400;2023-03-19T07:48:05;96240.66;;;11.30;46.06
32197;BME280;18697;42.770;23.400;2023-03-19T07:50:31;96232.63;;;11.32;45.08
32197;BME280;18697;42.770;23.400;2023-03-19T07:52:57;96238.78;;;11.49;44.53
32197;BME280;18697;42.770;23.400;2023-03-19T07:55:22;96236.09;;;11.67;45.07
32197;BME280;18697;42.770;23.400;2023-03-19T07:57:48;96242.69;;;11.61;44.06
32197;BME280;18697;42.770;23.400;2023-03-19T08:00:13;96236.38;;;11.38;43.23
32197;BME280;18697;42.770;23.400;2023-03-19T08:02:39;96230.59;;;11.55;43.85
32197;BME280;18697;42.770;23.400;2023-03-19T08:05:04;96232.22;;;12.05;42.73
32197;BME280;18697;42.770;23.400;2023-03-19T08:07:32;96225.72;;;11.99;43.51
32197;BME280;18697;42.770;23.400;2023-03-19T08:09:57;96226.63;;;11.96;43.27
32197;BME280;18697;42.770;23.400;2023-03-19T08:12:23;96229.75;;;12.07;41.73
32197;BME280;18697;42.770;23.400;2023-03-19T08:14:49;96229.03;;;12.25;41.45
32197;BME280;18697;42.770;23.400;2023-03-19T08:17:14;96230.63;;;12.44;41.97
32197;BME280;18697;42.770;23.400;2023-03-19T08:19:40;96222.91;;;12.84;42.80
32197;BME280;18697;42.770;23.400;2023-03-19T08:22:05;96229.88;;;13.07;41.19
32197;BME280;18697;42.770;23.400;2023-03-19T08:24:31;96228.31;;;13.15;41.76
32197;BME280;18697;42.770;23.400;2023-03-19T08:26:57;96219.50;;;13.17;42.87
32197;BME280;18697;42.770;23.400;2023-03-19T08:29:22;96211.34;;;13.56;41.23
32197;BME280;18697;42.770;23.400;2023-03-19T08:31:51;96220.78;;;13.58;40.09
32197;BME280;18697;42.770;23.400;2023-03-19T08:34:16;96218.25;;;13.18;40.58
32197;BME280;18697;42.770;23.400;2023-03-19T08:36:41;96214.06;;;12.95;41.24
32197;BME280;18697;42.770;23.400;2023-03-19T08:39:07;96208.34;;;12.90;41.53
32197;BME280;18697;42.770;23.400;2023-03-19T08:41:32;96207.72;;;13.22;40.73
32197;BME280;18697;42.770;23.400;2023-03-19T08:43:58;96205.84;;;13.28;40.68
32197;BME280;18697;42.770;23.400;2023-03-19T08:46:23;96216.06;;;13.13;39.00
32197;BME280;18697;42.770;23.400;2023-03-19T08:48:49;96220.09;;;13.03;38.49
32197;BME280;18697;42.770;23.400;2023-03-19T08:51:14;96202.41;;;12.14;39.91
32197;BME280;18697;42.770;23.400;2023-03-19T08:53:40;96197.81;;;12.57;40.22
32197;BME280;18697;42.770;23.400;2023-03-19T08:56:06;96202.59;;;12.75;39.15
32197;BME280;18697;42.770;23.400;2023-03-19T08:58:32;96199.66;;;12.42;41.09
32197;BME280;18697;42.770;23.400;2023-03-19T09:01:09;96186.97;;;12.87;40.47
32197;BME280;18697;42.770;23.400;2023-03-19T09:03:36;96188.75;;;13.44;39.15
32197;BME280;18697;42.770;23.400;2023-03-19T09:06:04;96173.94;;;13.62;38.69
32197;BME280;18697;42.770;23.400;2023-03-19T09:08:31;96176.28;;;13.64;39.08
32197;BME280;18697;42.770;23.400;2023-03-19T09:10:57;96182.66;;;13.97;39.64
32197;BME280;18697;42.770;23.400;2023-03-19T09:13:23;96183.91;;;13.96;38.48
32197;BME280;18697;42.770;23.400;2023-03-19T09:15:49;96175.16;;;14.03;37.11
32197;BME280;18697;42.770;23.400;2023-03-19T09:18:15;96178.06;;;14.33;36.20
32197;BME280;18697;42.770;23.400;2023-03-19T09:20:40;96169.88;;;14.05;36.55
32197;BME280;18697;42.770;23.400;2023-03-19T09:23:06;96169.78;;;14.48;36.06
32197;BME280;18697;42.770;23.400;2023-03-19T09:25:31;96162.47;;;14.50;37.66
32197;BME280;18697;42.770;23.400;2023-03-19T09:27:57;96173.28;;;14.57;37.69
32197;BME280;18697;42.770;23.400;2023-03-19T09:30:22;96168.16;;;14.56;35.33
32197;BME280;18697;42.770;23.400;2023-03-19T09:32:47;96174.50;;;14.32;34.78
32197;BME280;18697;42.770;23.400;2023-03-19T09:35:13;96172.00;;;14.34;35.59
32197;BME280;18697;42.770;23.400;2023-03-19T09:37:38;96174.63;;;13.90;36.24
32197;BME280;18697;42.770;23.400;2023-03-19T09:40:03;96165.38;;;14.56;36.89
32197;BME280;18697;42.770;23.400;2023-03-19T09:45:25;96163.91;;;14.99;34.31
32197;BME280;18697;42.770;23.400;2023-03-19T09:47:56;96165.63;;;14.82;34.47
32197;BME280;18697;42.770;23.400;2023-03-19T09:50:25;96161.56;;;14.68;35.05
32197;BME280;18697;42.770;23.400;2023-03-19T09:53:17;96149.66;;;15.26;36.41
32197;BME280;18697;42.770;23.400;2023-03-19T09:55:48;96158.63;;;15.45;33.78
32197;BME280;18697;42.770;23.400;2023-03-19T09:58:21;96147.22;;;15.63;35.47
32197;BME280;18697;42.770;23.400;2023-03-19T10:00:49;96150.16;;;15.89;34.90
32197;BME280;18697;42.770;23.400;2023-03-19T10:14:01;96134.16;;;16.51;33.64
32197;BME280;18697;42.770;23.400;2023-03-19T10:16:33;96139.34;;;16.37;32.29
32197;BME280;18697;42.770;23.400;2023-03-19T10:19:03;96134.84;;;15.70;32.91
32197;BME280;18697;42.770;23.400;2023-03-19T10:21:34;96140.06;;;15.62;33.21
32197;BME280;18697;42.770;23.400;2023-03-19T10:24:38;96127.69;;;15.69;32.85
32197;BME280;18697;42.770;23.400;2023-03-19T10:27:11;96120.19;;;15.60;32.64
32197;BME280;18697;42.770;23.400;2023-03-19T10:29:37;96117.69;;;15.48;32.95
32197;BME280;18697;42.770;23.400;2023-03-19T10:34:52;96086.84;;;16.58;34.67
32197;BME280;18697;42.770;23.400;2023-03-19T10:37:25;96090.50;;;16.64;32.98
32197;BME280;18697;42.770;23.400;2023-03-19T10:39:56;96092.13;;;16.71;34.04
32197;BME280;18697;42.770;23.400;2023-03-19T10:45:20;96079.91;;;16.74;34.67
32197;BME280;18697;42.770;23.400;2023-03-19T10:47:47;96087.06;;;16.75;32.22
32197;BME280;18697;42.770;23.400;2023-03-19T10:53:28;96066.50;;;16.84;33.20
32197;BME280;18697;42.770;23.400;2023-03-19T10:55:59;96062.25;;;17.25;31.56
32197;BME280;18697;42.770;23.400;2023-03-19T10:58:28;96069.28;;;17.41;31.28
32197;BME280;18697;42.770;23.400;2023-03-19T11:01:11;96066.41;;;17.35;30.30
32197;BME280;18697;42.770;23.400;2023-03-19T11:03:50;96068.31;;;17.50;30.53
32197;BME280;18697;42.770;23.400;2023-03-19T11:06:17;96055.19;;;17.67;31.29
32197;BME280;18697;42.770;23.400;2023-03-19T11:08:51;96048.41;;;17.90;30.43
32197;BME280;18697;42.770;23.400;2023-03-19T11:14:06;96037.13;;;18.38;30.89
32197;BME280;18697;42.770;23.400;2023-03-19T11:16:49;96037.97;;;18.56;29.66
32197;BME280;18697;42.770;23.400;2023-03-19T11:19:21;96031.34;;;18.64;30.32
32197;BME280;18697;42.770;23.400;2023-03-19T11:22:18;96028.75;;;18.61;29.38
32197;BME280;18697;42.770;23.400;2023-03-19T11:24:50;96023.94;;;18.78;30.17
32197;BME280;18697;42.770;23.400;2023-03-19T11:27:16;96010.66;;;19.01;31.74
32197;BME280;18697;42.770;23.400;2023-03-19T11:29:44;96009.38;;;18.91;29.93
32197;BME280;18697;42.770;23.400;2023-03-19T11:34:51;95992.75;;;18.87;32.40
32197;BME280;18697;42.770;23.400;2023-03-19T11:38:00;95998.91;;;19.02;30.01
32197;BME280;18697;42.770;23.400;2023-03-19T11:40:38;95990.44;;;19.30;29.44
32197;BME280;18697;42.770;23.400;2023-03-19T11:43:35;95992.47;;;19.41;28.52
32197;BME280;18697;42.770;23.400;2023-03-19T11:46:48;95982.69;;;19.70;30.54
32197;BME280;18697;42.770;23.400;2023-03-19T11:49:23;95978.88;;;19.51;28.16
32197;BME280;18697;42.770;23.400;2023-03-19T12:06:01;95954.31;;;19.40;28.71
32197;BME280;18697;42.770;23.400;2023-03-19T12:08:38;95948.41;;;19.55;29.38
32197;BME280;18697;42.770;23.400;2023-03-19T12:11:15;95948.88;;;19.70;29.76
32197;BME280;18697;42.770;23.400;2023-03-19T12:25:21;95932.97;;;19.78;28.30
32197;BME280;18697;42.770;23.400;2023-03-19T12:35:28;95918.84;;;20.36;29.61
32197;BME280;18697;42.770;23.400;2023-03-19T12:37:57;95911.69;;;20.29;29.14
32197;BME280;18697;42.770;23.400;2023-03-19T12:43:05;95910.69;;;20.27;29.13
32197;BME280;18697;42.770;23.400;2023-03-19T12:45:38;95911.97;;;20.26;28.44
32197;BME280;18697;42.770;23.400;2023-03-19T12:48:27;95907.56;;;20.36;27.12
32197;BME280;18697;42.770;23.400;2023-03-19T12:51:00;95922.91;;;20.46;25.94
32197;BME280;18697;42.770;23.400;2023-03-19T12:53:45;95916.47;;;20.05;26.68
32197;BME280;18697;42.770;23.400;2023-03-19T13:01:58;95897.59;;;20.29;27.35
32197;BME280;18697;42.770;23.400;2023-03-19T13:04:29;95906.25;;;20.37;25.89
32197;BME280;18697;42.770;23.400;2023-03-19T13:07:06;95897.75;;;20.48;27.12
32197;BME280;18697;42.770;23.400;2023-03-19T13:09:43;95884.94;;;20.47;29.50
32197;BME280;18697;42.770;23.400;2023-03-19T13:12:12;95877.94;;;20.59;30.34
32197;BME280;18697;42.770;23.400;2023-03-19T13:23:23;95878.03;;;20.43;28.29
32197;BME280;18697;42.770;23.400;2023-03-19T13:25:50;95872.41;;;20.37;26.53
32197;BME280;18697;42.770;23.400;2023-03-19T13:28:27;95862.94;;;20.40;28.95
32197;BME280;18697;42.770;23.400;2023-03-19T13:31:05;95869.34;;;20.41;28.62
32197;BME280;18697;42.770;23.400;2023-03-19T13:33:32;95861.88;;;20.43;28.79
32197;BME280;18697;42.770;23.400;2023-03-19T13:36:04;95861.88;;;20.43;27.79
32197;BME280;18697;42.770;23.400;2023-03-19T13:38:47;95854.63;;;20.53;27.71
32197;BME280;18697;42.770;23.400;2023-03-19T13:43:57;95861.22;;;20.61;27.82
32197;BME280;18697;42.770;23.400;2023-03-19T13:46:33;95863.63;;;20.52;27.37
32197;BME280;18697;42.770;23.400;2023-03-19T13:49:32;95851.56;;;20.51;28.52
32197;BME280;18697;42.770;23.400;2023-03-19T13:54:39;95865.19;;;20.47;25.80
32197;BME280;18697;42.770;23.400;2023-03-19T13:57:16;95852.13;;;20.44;28.34
32197;BME280;18697;42.770;23.400;2023-03-19T13:59:45;95843.44;;;20.42;27.85
32197;BME280;18697;42.770;23.400;2023-03-19T14:05:07;95834.72;;;20.40;27.38
32197;BME280;18697;42.770;23.400;2023-03-19T14:07:38;95832.91;;;20.43;27.67
32197;BME280;18697;42.770;23.400;2023-03-19T14:12:40;95824.97;;;20.41;26.29
32197;BME280;18697;42.770;23.400;2023-03-19T14:17:43;95828.16;;;20.21;26.01
32197;BME280;18697;42.770;23.400;2023-03-19T14:22:40;95836.56;;;20.32;25.94
32197;BME280;18697;42.770;23.400;2023-03-19T14:25:24;95829.91;;;20.29;27.85
32197;BME280;18697;42.770;23.400;2023-03-19T14:27:54;95836.03;;;20.33;26.19
32197;BME280;18697;42.770;23.400;2023-03-19T14:30:29;95831.72;;;20.27;26.00
32197;BME280;18697;42.770;23.400;2023-03-19T14:32:58;95831.72;;;20.27;25.37
32197;BME280;18697;42.770;23.400;2023-03-19T14:35:25;95840.22;;;20.21;25.26
32197;BME280;18697;42.770;23.400;2023-03-19T14:37:52;95831.00;;;20.21;25.41
32197;BME280;18697;42.770;23.400;2023-03-19T14:40:26;95829.91;;;20.29;26.99